Corinthiakos — A8UL2 — position and weather

sailwx.info

Track history (hours):
 
Tides and Currents Weather Stations Pressure Air Temp Water Temp Dewpoint Dewpoint Depression Visibility Wind Speed Wind Dir Waves Ship Positions

Corinthiakos

Last reported at 2014-Oct-29 03:24 UTC. Time now 2014-Oct-31 20:08 UTC.
Position N 30°17' E 122°05'.

Length 262 m; draft 5.6 m.

Type: Cargo ship. MMSI: 636014516.

Date/timePositionNaut miles runAvg speedWind from/ knotsBaromVisibWave heightAir tempDewpointWater temp
2014-Oct-29 03:24N 30°17' E 122°05'0 0.0
2014-Oct-28 02:06N 30°17' E 122°05'0 0.0
2014-Oct-26 19:24N 30°17' E 122°05'0 0.0
2014-Oct-25 04:24N 30°17' E 122°05'0 0.0
2014-Oct-24 21:19N 30°17' E 122°05'0 0.0
2014-Oct-24 15:23N 30°17' E 122°05'1 0.1
2014-Oct-24 05:12N 30°16' E 122°05'5 1.8
2014-Oct-24 02:33N 30°14' E 121°59'5 2.1
2014-Oct-24 00:11N 30°17' E 121°54'4 6.5
2014-Oct-23 23:32N 30°17' E 121°50'7 7.2
2014-Oct-23 22:33N 30°24' E 121°50'1512.2
2014-Oct-23 21:22N 30°31' E 122°05'1113.2
2014-Oct-23 20:33N 30°33' E 122°18'1511.7
2014-Oct-23 19:18N 30°30' E 122°34'1012.2
2014-Oct-23 18:29N 30°28' E 122°45'1212.8
2014-Oct-23 17:33N 30°20' E 122°56'2612.6
2014-Oct-23 15:30N 29°54' E 122°55'1514.5
2014-Oct-23 14:29N 29°40' E 122°53'1314.0
2014-Oct-23 13:32N 29°28' E 122°44'1414.2
2014-Oct-23 12:32N 29°16' E 122°37'31515.7
2014-Oct-22 16:23N 24°47' E 119°31'1112.7
2014-Oct-22 15:33N 24°40' E 119°22'1312.7
2014-Oct-22 14:33N 24°32' E 119°12'1512.6
2014-Oct-22 13:23N 24°22' E 119°00'4411.5
2014-Oct-22 09:33N 23°52' E 118°24'1311.4
2014-Oct-22 08:22N 23°43' E 118°13'1011.3
2014-Oct-22 07:31N 23°37' E 118°05'5811.5
2014-Oct-22 02:31N 23°02' E 117°15'1414.0
2014-Oct-22 01:33N 22°55' E 117°02'1414.1
2014-Oct-22 00:33N 22°48' E 116°49'1614.4
2014-Oct-21 23:29N 22°40' E 116°35'12914.1
2014-Oct-21 14:19N 22°08' E 114°20'11 6.1
2014-Oct-21 12:27N 22°10' E 114°08'0 0.0
2014-Oct-21 11:33N 22°10' E 114°08'1 0.4
2014-Oct-21 09:33N 22°10' E 114°07'1211.6
2014-Oct-21 08:32N 22°06' E 113°54'8 8.3
2014-Oct-21 07:33N 22°11' E 113°47'1211.7
2014-Oct-21 06:33N 22°23' E 113°46'1514.5
2014-Oct-21 05:33N 22°37' E 113°42'2 1.5
2014-Oct-21 04:22N 22°38' E 113°41'0 0.0
2014-Oct-21 03:28N 22°38' E 113°41'0 0.0
2014-Oct-21 01:22N 22°38' E 113°41'0 0.0
2014-Oct-21 00:10N 22°38' E 113°41'0 0.0
2014-Oct-20 23:22N 22°38' E 113°41'0 0.0
2014-Oct-20 22:16N 22°38' E 113°41'0 0.0
2014-Oct-20 19:22N 22°38' E 113°41'0 0.0
2014-Oct-20 16:27N 22°38' E 113°41'4 4.7
2014-Oct-20 15:34N 22°35' E 113°43'1414.1
2014-Oct-20 14:33N 22°21' E 113°47'1212.5
2014-Oct-20 13:33N 22°09' E 113°51'10 9.8
2014-Oct-20 12:30N 21°59' E 113°53'9012.4
2014-Oct-20 05:16N 22°13' E 115°29'1416.0
2014-Oct-20 04:22N 22°17' E 115°43'1113.3
2014-Oct-20 03:32N 22°21' E 115°54'  
Track history (hours):
 
Tides and Currents Weather Stations Pressure Air Temp Water Temp Dewpoint Dewpoint Depression Visibility Wind Speed Wind Dir Waves Ship Positions

Corinthiakos

Last reported at 2014-Oct-29 03:24 UTC. Time now 2014-Oct-31 20:08 UTC.
Position N 30°17' E 122°05'.

Length 262 m; draft 5.6 m.

Type: Cargo ship. MMSI: 636014516.

Date/timePositionNaut miles runAvg speedWind from/ knotsBaromVisibWave heightAir tempDewpointWater temp
2014-Oct-29 03:24N 30°17' E 122°05'0 0.0
2014-Oct-28 02:06N 30°17' E 122°05'0 0.0
2014-Oct-26 19:24N 30°17' E 122°05'0 0.0
2014-Oct-25 04:24N 30°17' E 122°05'0 0.0
2014-Oct-24 21:19N 30°17' E 122°05'0 0.0
2014-Oct-24 15:23N 30°17' E 122°05'1 0.1
2014-Oct-24 05:12N 30°16' E 122°05'5 1.8
2014-Oct-24 02:33N 30°14' E 121°59'5 2.1
2014-Oct-24 00:11N 30°17' E 121°54'4 6.5
2014-Oct-23 23:32N 30°17' E 121°50'7 7.2
2014-Oct-23 22:33N 30°24' E 121°50'1512.2
2014-Oct-23 21:22N 30°31' E 122°05'1113.2
2014-Oct-23 20:33N 30°33' E 122°18'1511.7
2014-Oct-23 19:18N 30°30' E 122°34'1012.2
2014-Oct-23 18:29N 30°28' E 122°45'1212.8
2014-Oct-23 17:33N 30°20' E 122°56'2612.6
2014-Oct-23 15:30N 29°54' E 122°55'1514.5
2014-Oct-23 14:29N 29°40' E 122°53'1314.0
2014-Oct-23 13:32N 29°28' E 122°44'1414.2
2014-Oct-23 12:32N 29°16' E 122°37'31515.7
2014-Oct-22 16:23N 24°47' E 119°31'1112.7
2014-Oct-22 15:33N 24°40' E 119°22'1312.7
2014-Oct-22 14:33N 24°32' E 119°12'1512.6
2014-Oct-22 13:23N 24°22' E 119°00'4411.5
2014-Oct-22 09:33N 23°52' E 118°24'1311.4
2014-Oct-22 08:22N 23°43' E 118°13'1011.3
2014-Oct-22 07:31N 23°37' E 118°05'5811.5
2014-Oct-22 02:31N 23°02' E 117°15'1414.0
2014-Oct-22 01:33N 22°55' E 117°02'1414.1
2014-Oct-22 00:33N 22°48' E 116°49'1614.4
2014-Oct-21 23:29N 22°40' E 116°35'12914.1
2014-Oct-21 14:19N 22°08' E 114°20'11 6.1
2014-Oct-21 12:27N 22°10' E 114°08'0 0.0
2014-Oct-21 11:33N 22°10' E 114°08'1 0.4
2014-Oct-21 09:33N 22°10' E 114°07'1211.6
2014-Oct-21 08:32N 22°06' E 113°54'8 8.3
2014-Oct-21 07:33N 22°11' E 113°47'1211.7
2014-Oct-21 06:33N 22°23' E 113°46'1514.5
2014-Oct-21 05:33N 22°37' E 113°42'2 1.5
2014-Oct-21 04:22N 22°38' E 113°41'0 0.0
2014-Oct-21 03:28N 22°38' E 113°41'0 0.0
2014-Oct-21 01:22N 22°38' E 113°41'0 0.0
2014-Oct-21 00:10N 22°38' E 113°41'0 0.0
2014-Oct-20 23:22N 22°38' E 113°41'0 0.0
2014-Oct-20 22:16N 22°38' E 113°41'0 0.0
2014-Oct-20 19:22N 22°38' E 113°41'0 0.0
2014-Oct-20 16:27N 22°38' E 113°41'4 4.7
2014-Oct-20 15:34N 22°35' E 113°43'1414.1
2014-Oct-20 14:33N 22°21' E 113°47'1212.5
2014-Oct-20 13:33N 22°09' E 113°51'10 9.8
2014-Oct-20 12:30N 21°59' E 113°53'9012.4
2014-Oct-20 05:16N 22°13' E 115°29'1416.0
2014-Oct-20 04:22N 22°17' E 115°43'1113.3
2014-Oct-20 03:32N 22°21' E 115°54'  

Dump ship's entire track history